Fairview Cross Roads, North Carolina
Current Conditions -  °F | °C
As of 9:55 PM on Tuesday 21 Oct 2014 (Local Time) from KMWK Reporting Station
Scattered Clouds Scattered Clouds  
Wind Chill: 52°   Ceiling: Unl
Heat Index: 52°   Visibility: 10mi
Dew Point: 41°   Wind: 7mph
Humidity: 65%   Direction: 320°NW
Pressure: 30.03"   Gusts: NA
Location:  36.3461°N, 80.7011°W
Report Text: KMWK 220155Z AUTO 32006KT 10SM SCT070 11/05 A3003 RMK AO2 T01120049
Loading
Personal Weather Stations






























Interactive Weather Map
Tropical Storm Tracking
New forecast layout! Learn more

10-Day Weather Forecast

Advertisements
Track Severe Weather on mobile